sensor_id;sensor_type;location;lat;lon;timestamp;P1;durP1;ratioP1;P2;durP2;ratioP2
40827;SDS011;26549;50.918;5.338;2023-02-10T00:00:51;34.17;;;18.67;;
40827;SDS011;26549;50.918;5.338;2023-02-10T00:03:16;26.60;;;17.17;;
40827;SDS011;26549;50.918;5.338;2023-02-10T00:05:43;29.02;;;17.98;;
40827;SDS011;26549;50.918;5.338;2023-02-10T00:08:09;31.55;;;17.25;;
40827;SDS011;26549;50.918;5.338;2023-02-10T00:10:35;25.48;;;16.65;;
40827;SDS011;26549;50.918;5.338;2023-02-10T00:13:01;30.35;;;17.35;;
40827;SDS011;26549;50.918;5.338;2023-02-10T00:15:27;28.77;;;17.67;;
40827;SDS011;26549;50.918;5.338;2023-02-10T00:17:52;35.45;;;18.35;;
40827;SDS011;26549;50.918;5.338;2023-02-10T00:20:18;30.55;;;16.95;;
40827;SDS011;26549;50.918;5.338;2023-02-10T00:22:44;34.75;;;18.60;;
40827;SDS011;26549;50.918;5.338;2023-02-10T00:25:12;29.88;;;19.08;;
40827;SDS011;26549;50.918;5.338;2023-02-10T00:27:38;30.15;;;19.20;;
40827;SDS011;26549;50.918;5.338;2023-02-10T00:30:04;31.17;;;16.52;;
40827;SDS011;26549;50.918;5.338;2023-02-10T00:32:30;34.75;;;18.35;;
40827;SDS011;26549;50.918;5.338;2023-02-10T00:34:56;29.17;;;18.35;;
40827;SDS011;26549;50.918;5.338;2023-02-10T00:37:21;30.45;;;19.15;;
40827;SDS011;26549;50.918;5.338;2023-02-10T00:39:51;31.98;;;18.38;;
40827;SDS011;26549;50.918;5.338;2023-02-10T00:42:17;35.10;;;18.42;;
40827;SDS011;26549;50.918;5.338;2023-02-10T00:44:43;30.95;;;18.27;;
40827;SDS011;26549;50.918;5.338;2023-02-10T00:47:10;29.75;;;17.63;;
40827;SDS011;26549;50.918;5.338;2023-02-10T00:49:37;31.88;;;19.52;;
40827;SDS011;26549;50.918;5.338;2023-02-10T00:52:02;30.05;;;18.48;;
40827;SDS011;26549;50.918;5.338;2023-02-10T00:54:28;30.90;;;19.08;;
40827;SDS011;26549;50.918;5.338;2023-02-10T00:56:54;35.60;;;20.23;;
40827;SDS011;26549;50.918;5.338;2023-02-10T00:59:20;25.73;;;16.75;;
40827;SDS011;26549;50.918;5.338;2023-02-10T01:01:46;29.10;;;17.88;;
40827;SDS011;26549;50.918;5.338;2023-02-10T01:04:13;31.98;;;19.02;;
40827;SDS011;26549;50.918;5.338;2023-02-10T01:06:41;37.47;;;18.15;;
40827;SDS011;26549;50.918;5.338;2023-02-10T01:09:08;33.30;;;17.65;;
40827;SDS011;26549;50.918;5.338;2023-02-10T01:11:34;31.00;;;18.90;;
40827;SDS011;26549;50.918;5.338;2023-02-10T01:14:00;32.10;;;18.63;;
40827;SDS011;26549;50.918;5.338;2023-02-10T01:16:26;29.15;;;18.40;;
40827;SDS011;26549;50.918;5.338;2023-02-10T01:18:51;30.13;;;18.33;;
40827;SDS011;26549;50.918;5.338;2023-02-10T01:21:19;34.95;;;18.80;;
40827;SDS011;26549;50.918;5.338;2023-02-10T01:23:47;30.65;;;18.33;;
40827;SDS011;26549;50.918;5.338;2023-02-10T01:26:13;33.00;;;19.65;;
40827;SDS011;26549;50.918;5.338;2023-02-10T01:28:39;28.63;;;18.33;;
40827;SDS011;26549;50.918;5.338;2023-02-10T01:31:06;31.40;;;18.17;;
40827;SDS011;26549;50.918;5.338;2023-02-10T01:33:32;35.90;;;19.00;;
40827;SDS011;26549;50.918;5.338;2023-02-10T01:36:01;32.10;;;19.52;;
40827;SDS011;26549;50.918;5.338;2023-02-10T01:38:32;34.22;;;18.10;;
40827;SDS011;26549;50.918;5.338;2023-02-10T01:40:57;31.65;;;19.52;;
40827;SDS011;26549;50.918;5.338;2023-02-10T01:43:24;32.35;;;18.45;;
40827;SDS011;26549;50.918;5.338;2023-02-10T01:45:49;31.77;;;18.48;;
40827;SDS011;26549;50.918;5.338;2023-02-10T01:48:15;28.90;;;19.00;;
40827;SDS011;26549;50.918;5.338;2023-02-10T01:50:51;31.20;;;18.17;;
40827;SDS011;26549;50.918;5.338;2023-02-10T01:53:19;29.67;;;18.48;;
40827;SDS011;26549;50.918;5.338;2023-02-10T01:55:46;36.22;;;20.85;;
40827;SDS011;26549;50.918;5.338;2023-02-10T01:58:17;32.42;;;18.45;;
40827;SDS011;26549;50.918;5.338;2023-02-10T02:00:46;36.55;;;19.58;;
40827;SDS011;26549;50.918;5.338;2023-02-10T02:03:12;32.17;;;20.33;;
40827;SDS011;26549;50.918;5.338;2023-02-10T02:05:40;31.63;;;18.92;;
40827;SDS011;26549;50.918;5.338;2023-02-10T02:08:08;31.83;;;17.95;;
40827;SDS011;26549;50.918;5.338;2023-02-10T02:10:40;34.67;;;20.70;;
40827;SDS011;26549;50.918;5.338;2023-02-10T02:16:11;38.85;;;18.90;;
40827;SDS011;26549;50.918;5.338;2023-02-10T02:32:20;37.13;;;21.45;;
40827;SDS011;26549;50.918;5.338;2023-02-10T02:34:55;34.17;;;18.48;;
40827;SDS011;26549;50.918;5.338;2023-02-10T02:37:42;34.03;;;19.40;;
40827;SDS011;26549;50.918;5.338;2023-02-10T02:40:11;38.78;;;19.58;;
40827;SDS011;26549;50.918;5.338;2023-02-10T02:42:38;29.50;;;19.02;;
40827;SDS011;26549;50.918;5.338;2023-02-10T02:45:06;33.55;;;19.58;;
40827;SDS011;26549;50.918;5.338;2023-02-10T02:50:44;31.00;;;18.77;;
40827;SDS011;26549;50.918;5.338;2023-02-10T03:00:57;32.72;;;19.73;;
40827;SDS011;26549;50.918;5.338;2023-02-10T03:03:31;32.22;;;19.23;;
40827;SDS011;26549;50.918;5.338;2023-02-10T03:06:01;31.50;;;19.23;;
40827;SDS011;26549;50.918;5.338;2023-02-10T03:08:28;29.45;;;18.58;;
40827;SDS011;26549;50.918;5.338;2023-02-10T03:10:58;34.30;;;19.77;;
40827;SDS011;26549;50.918;5.338;2023-02-10T03:13:24;34.42;;;21.25;;
40827;SDS011;26549;50.918;5.338;2023-02-10T03:15:49;35.42;;;20.60;;
40827;SDS011;26549;50.918;5.338;2023-02-10T03:18:15;33.53;;;19.85;;
40827;SDS011;26549;50.918;5.338;2023-02-10T03:20:41;29.95;;;18.65;;
40827;SDS011;26549;50.918;5.338;2023-02-10T03:23:08;38.40;;;21.83;;
40827;SDS011;26549;50.918;5.338;2023-02-10T03:25:35;35.83;;;20.33;;
40827;SDS011;26549;50.918;5.338;2023-02-10T03:28:00;32.83;;;19.27;;
40827;SDS011;26549;50.918;5.338;2023-02-10T03:30:28;33.75;;;19.90;;
40827;SDS011;26549;50.918;5.338;2023-02-10T03:32:53;37.33;;;20.60;;
40827;SDS011;26549;50.918;5.338;2023-02-10T03:35:21;32.35;;;19.00;;
40827;SDS011;26549;50.918;5.338;2023-02-10T03:37:46;37.95;;;20.75;;
40827;SDS011;26549;50.918;5.338;2023-02-10T03:40:12;35.55;;;20.80;;
40827;SDS011;26549;50.918;5.338;2023-02-10T03:42:38;36.00;;;19.73;;
40827;SDS011;26549;50.918;5.338;2023-02-10T03:45:04;36.45;;;20.25;;
40827;SDS011;26549;50.918;5.338;2023-02-10T03:47:30;36.40;;;21.40;;
40827;SDS011;26549;50.918;5.338;2023-02-10T03:49:55;38.45;;;21.90;;
40827;SDS011;26549;50.918;5.338;2023-02-10T03:52:21;31.80;;;20.92;;
40827;SDS011;26549;50.918;5.338;2023-02-10T03:54:47;35.47;;;20.52;;
40827;SDS011;26549;50.918;5.338;2023-02-10T03:57:13;38.25;;;20.70;;
40827;SDS011;26549;50.918;5.338;2023-02-10T03:59:38;38.22;;;22.25;;
40827;SDS011;26549;50.918;5.338;2023-02-10T04:02:04;39.28;;;22.70;;
40827;SDS011;26549;50.918;5.338;2023-02-10T04:04:30;37.42;;;21.55;;
40827;SDS011;26549;50.918;5.338;2023-02-10T04:06:56;36.65;;;19.58;;
40827;SDS011;26549;50.918;5.338;2023-02-10T04:09:21;40.47;;;20.88;;
40827;SDS011;26549;50.918;5.338;2023-02-10T04:11:48;33.00;;;20.48;;
40827;SDS011;26549;50.918;5.338;2023-02-10T04:14:14;35.70;;;20.60;;
40827;SDS011;26549;50.918;5.338;2023-02-10T04:16:41;31.02;;;19.10;;
40827;SDS011;26549;50.918;5.338;2023-02-10T04:19:07;32.35;;;19.77;;
40827;SDS011;26549;50.918;5.338;2023-02-10T04:21:33;36.50;;;19.85;;
40827;SDS011;26549;50.918;5.338;2023-02-10T04:23:58;35.50;;;19.42;;
40827;SDS011;26549;50.918;5.338;2023-02-10T04:26:24;37.88;;;20.33;;
40827;SDS011;26549;50.918;5.338;2023-02-10T04:28:50;38.42;;;21.65;;
40827;SDS011;26549;50.918;5.338;2023-02-10T04:31:16;37.47;;;22.02;;
40827;SDS011;26549;50.918;5.338;2023-02-10T04:33:42;39.85;;;22.65;;
40827;SDS011;26549;50.918;5.338;2023-02-10T04:36:08;40.03;;;21.40;;
40827;SDS011;26549;50.918;5.338;2023-02-10T04:38:34;37.22;;;22.98;;
40827;SDS011;26549;50.918;5.338;2023-02-10T04:41:00;36.65;;;21.92;;
40827;SDS011;26549;50.918;5.338;2023-02-10T04:43:28;32.95;;;19.00;;
40827;SDS011;26549;50.918;5.338;2023-02-10T04:45:54;37.03;;;20.98;;
40827;SDS011;26549;50.918;5.338;2023-02-10T04:48:20;31.58;;;19.20;;
40827;SDS011;26549;50.918;5.338;2023-02-10T04:50:46;35.50;;;20.13;;
40827;SDS011;26549;50.918;5.338;2023-02-10T04:53:12;34.60;;;19.80;;
40827;SDS011;26549;50.918;5.338;2023-02-10T04:55:38;33.20;;;20.23;;
40827;SDS011;26549;50.918;5.338;2023-02-10T04:58:03;37.88;;;20.67;;
40827;SDS011;26549;50.918;5.338;2023-02-10T05:00:29;36.42;;;21.17;;
40827;SDS011;26549;50.918;5.338;2023-02-10T05:02:55;34.60;;;21.58;;
40827;SDS011;26549;50.918;5.338;2023-02-10T05:05:21;35.22;;;19.73;;
40827;SDS011;26549;50.918;5.338;2023-02-10T05:07:49;36.88;;;20.45;;
40827;SDS011;26549;50.918;5.338;2023-02-10T05:10:15;33.25;;;19.15;;
40827;SDS011;26549;50.918;5.338;2023-02-10T05:12:42;40.33;;;19.98;;
40827;SDS011;26549;50.918;5.338;2023-02-10T05:15:09;33.78;;;20.73;;
40827;SDS011;26549;50.918;5.338;2023-02-10T05:17:38;39.00;;;21.38;;
40827;SDS011;26549;50.918;5.338;2023-02-10T05:20:04;38.55;;;20.75;;
40827;SDS011;26549;50.918;5.338;2023-02-10T05:22:30;36.85;;;21.15;;
40827;SDS011;26549;50.918;5.338;2023-02-10T05:24:56;36.03;;;21.40;;
40827;SDS011;26549;50.918;5.338;2023-02-10T05:27:24;38.00;;;20.35;;
40827;SDS011;26549;50.918;5.338;2023-02-10T05:29:51;33.80;;;20.30;;
40827;SDS011;26549;50.918;5.338;2023-02-10T05:32:18;36.80;;;22.63;;
40827;SDS011;26549;50.918;5.338;2023-02-10T05:34:44;36.55;;;20.98;;
40827;SDS011;26549;50.918;5.338;2023-02-10T05:37:10;40.80;;;21.00;;
40827;SDS011;26549;50.918;5.338;2023-02-10T05:39:35;44.78;;;21.17;;
40827;SDS011;26549;50.918;5.338;2023-02-10T05:42:02;41.08;;;22.63;;
40827;SDS011;26549;50.918;5.338;2023-02-10T05:44:28;36.22;;;20.33;;
40827;SDS011;26549;50.918;5.338;2023-02-10T05:46:55;36.42;;;21.45;;
40827;SDS011;26549;50.918;5.338;2023-02-10T05:49:21;38.95;;;22.23;;
40827;SDS011;26549;50.918;5.338;2023-02-10T05:51:46;44.20;;;25.67;;
40827;SDS011;26549;50.918;5.338;2023-02-10T05:54:12;41.80;;;22.83;;
40827;SDS011;26549;50.918;5.338;2023-02-10T05:56:38;45.70;;;21.90;;
40827;SDS011;26549;50.918;5.338;2023-02-10T05:59:05;43.08;;;22.92;;
40827;SDS011;26549;50.918;5.338;2023-02-10T06:01:33;41.10;;;21.38;;
40827;SDS011;26549;50.918;5.338;2023-02-10T06:03:58;43.25;;;23.65;;
40827;SDS011;26549;50.918;5.338;2023-02-10T06:06:24;38.65;;;22.58;;
40827;SDS011;26549;50.918;5.338;2023-02-10T06:08:51;38.70;;;22.25;;
40827;SDS011;26549;50.918;5.338;2023-02-10T06:11:17;42.42;;;23.50;;
40827;SDS011;26549;50.918;5.338;2023-02-10T06:13:42;43.25;;;24.05;;
40827;SDS011;26549;50.918;5.338;2023-02-10T06:16:08;45.85;;;20.50;;
40827;SDS011;26549;50.918;5.338;2023-02-10T06:18:34;43.47;;;21.90;;
40827;SDS011;26549;50.918;5.338;2023-02-10T06:21:00;39.80;;;23.08;;
40827;SDS011;26549;50.918;5.338;2023-02-10T06:23:25;37.20;;;21.90;;
40827;SDS011;26549;50.918;5.338;2023-02-10T06:25:51;40.75;;;22.38;;
40827;SDS011;26549;50.918;5.338;2023-02-10T06:28:24;40.28;;;22.75;;
40827;SDS011;26549;50.918;5.338;2023-02-10T06:30:51;41.97;;;23.08;;
40827;SDS011;26549;50.918;5.338;2023-02-10T06:33:17;40.40;;;22.40;;
40827;SDS011;26549;50.918;5.338;2023-02-10T06:35:45;39.25;;;21.83;;
40827;SDS011;26549;50.918;5.338;2023-02-10T06:38:11;44.55;;;20.55;;
40827;SDS011;26549;50.918;5.338;2023-02-10T06:40:38;39.65;;;22.48;;
40827;SDS011;26549;50.918;5.338;2023-02-10T06:43:04;37.83;;;22.08;;
40827;SDS011;26549;50.918;5.338;2023-02-10T06:45:31;41.55;;;22.42;;
40827;SDS011;26549;50.918;5.338;2023-02-10T06:47:57;38.70;;;21.88;;
40827;SDS011;26549;50.918;5.338;2023-02-10T06:50:26;43.10;;;24.38;;
40827;SDS011;26549;50.918;5.338;2023-02-10T06:52:52;52.75;;;29.33;;
40827;SDS011;26549;50.918;5.338;2023-02-10T06:55:17;57.00;;;29.92;;
40827;SDS011;26549;50.918;5.338;2023-02-10T06:57:43;54.42;;;29.13;;
40827;SDS011;26549;50.918;5.338;2023-02-10T07:00:10;53.65;;;28.67;;
40827;SDS011;26549;50.918;5.338;2023-02-10T07:02:38;46.80;;;25.10;;
40827;SDS011;26549;50.918;5.338;2023-02-10T07:05:05;43.58;;;23.20;;
40827;SDS011;26549;50.918;5.338;2023-02-10T07:07:33;47.05;;;24.33;;
40827;SDS011;26549;50.918;5.338;2023-02-10T07:09:59;39.08;;;22.30;;
40827;SDS011;26549;50.918;5.338;2023-02-10T07:12:25;40.10;;;23.60;;
40827;SDS011;26549;50.918;5.338;2023-02-10T07:14:51;40.97;;;22.92;;
40827;SDS011;26549;50.918;5.338;2023-02-10T07:17:17;43.95;;;25.48;;
40827;SDS011;26549;50.918;5.338;2023-02-10T07:19:43;49.28;;;26.98;;
40827;SDS011;26549;50.918;5.338;2023-02-10T07:22:09;43.15;;;24.35;;
40827;SDS011;26549;50.918;5.338;2023-02-10T07:24:35;40.20;;;23.42;;
40827;SDS011;26549;50.918;5.338;2023-02-10T07:27:02;50.60;;;25.17;;
40827;SDS011;26549;50.918;5.338;2023-02-10T07:29:28;43.17;;;23.58;;
40827;SDS011;26549;50.918;5.338;2023-02-10T07:31:54;47.53;;;23.83;;
40827;SDS011;26549;50.918;5.338;2023-02-10T07:34:24;42.45;;;23.60;;
40827;SDS011;26549;50.918;5.338;2023-02-10T07:36:50;51.67;;;26.25;;
40827;SDS011;26549;50.918;5.338;2023-02-10T07:39:22;47.67;;;25.73;;
40827;SDS011;26549;50.918;5.338;2023-02-10T07:41:49;45.08;;;25.48;;
40827;SDS011;26549;50.918;5.338;2023-02-10T07:44:15;44.13;;;24.25;;
40827;SDS011;26549;50.918;5.338;2023-02-10T07:46:41;46.50;;;25.33;;
40827;SDS011;26549;50.918;5.338;2023-02-10T07:49:08;46.80;;;25.55;;
40827;SDS011;26549;50.918;5.338;2023-02-10T07:51:33;42.50;;;24.08;;
40827;SDS011;26549;50.918;5.338;2023-02-10T07:53:59;48.55;;;25.48;;
40827;SDS011;26549;50.918;5.338;2023-02-10T07:56:25;45.28;;;23.40;;
40827;SDS011;26549;50.918;5.338;2023-02-10T07:58:51;47.25;;;26.45;;
40827;SDS011;26549;50.918;5.338;2023-02-10T08:01:17;48.50;;;24.92;;
40827;SDS011;26549;50.918;5.338;2023-02-10T08:03:42;43.28;;;25.40;;
40827;SDS011;26549;50.918;5.338;2023-02-10T08:06:08;48.95;;;24.77;;
40827;SDS011;26549;50.918;5.338;2023-02-10T08:08:34;45.58;;;25.77;;
40827;SDS011;26549;50.918;5.338;2023-02-10T08:11:03;45.78;;;26.60;;
40827;SDS011;26549;50.918;5.338;2023-02-10T08:13:29;41.88;;;24.13;;
40827;SDS011;26549;50.918;5.338;2023-02-10T08:15:55;42.03;;;23.40;;
40827;SDS011;26549;50.918;5.338;2023-02-10T08:18:21;44.33;;;24.42;;
40827;SDS011;26549;50.918;5.338;2023-02-10T08:20:47;47.40;;;23.58;;
40827;SDS011;26549;50.918;5.338;2023-02-10T08:23:13;42.15;;;24.55;;
40827;SDS011;26549;50.918;5.338;2023-02-10T08:25:41;41.63;;;22.95;;
40827;SDS011;26549;50.918;5.338;2023-02-10T08:28:07;43.85;;;23.52;;
40827;SDS011;26549;50.918;5.338;2023-02-10T08:30:32;43.88;;;24.35;;
40827;SDS011;26549;50.918;5.338;2023-02-10T08:32:58;39.22;;;23.90;;
40827;SDS011;26549;50.918;5.338;2023-02-10T08:35:24;43.47;;;24.98;;
40827;SDS011;26549;50.918;5.338;2023-02-10T08:37:50;41.78;;;24.55;;
40827;SDS011;26549;50.918;5.338;2023-02-10T08:40:16;37.33;;;21.77;;
40827;SDS011;26549;50.918;5.338;2023-02-10T08:42:42;45.47;;;24.63;;
40827;SDS011;26549;50.918;5.338;2023-02-10T08:45:08;43.92;;;25.35;;
40827;SDS011;26549;50.918;5.338;2023-02-10T08:47:34;45.83;;;23.80;;
40827;SDS011;26549;50.918;5.338;2023-02-10T08:50:00;39.95;;;24.02;;
40827;SDS011;26549;50.918;5.338;2023-02-10T08:52:25;41.05;;;24.50;;
40827;SDS011;26549;50.918;5.338;2023-02-10T08:54:51;44.75;;;24.48;;
40827;SDS011;26549;50.918;5.338;2023-02-10T08:57:17;49.17;;;25.15;;
40827;SDS011;26549;50.918;5.338;2023-02-10T08:59:44;46.60;;;25.20;;
40827;SDS011;26549;50.918;5.338;2023-02-10T09:02:11;44.97;;;26.25;;
40827;SDS011;26549;50.918;5.338;2023-02-10T09:04:39;44.35;;;24.90;;
40827;SDS011;26549;50.918;5.338;2023-02-10T09:07:05;49.03;;;26.38;;
40827;SDS011;26549;50.918;5.338;2023-02-10T09:09:31;43.15;;;24.05;;
40827;SDS011;26549;50.918;5.338;2023-02-10T09:12:02;44.80;;;25.55;;
40827;SDS011;26549;50.918;5.338;2023-02-10T09:14:29;43.10;;;23.52;;
40827;SDS011;26549;50.918;5.338;2023-02-10T09:16:55;42.15;;;24.33;;
40827;SDS011;26549;50.918;5.338;2023-02-10T09:19:21;43.88;;;25.10;;
40827;SDS011;26549;50.918;5.338;2023-02-10T09:21:48;43.30;;;23.83;;
40827;SDS011;26549;50.918;5.338;2023-02-10T09:24:15;42.70;;;24.30;;
40827;SDS011;26549;50.918;5.338;2023-02-10T09:26:41;42.03;;;24.58;;
40827;SDS011;26549;50.918;5.338;2023-02-10T09:29:07;46.35;;;25.55;;
40827;SDS011;26549;50.918;5.338;2023-02-10T09:31:34;56.90;;;25.77;;
40827;SDS011;26549;50.918;5.338;2023-02-10T09:34:01;43.38;;;24.45;;
40827;SDS011;26549;50.918;5.338;2023-02-10T09:36:28;43.13;;;25.27;;
40827;SDS011;26549;50.918;5.338;2023-02-10T09:38:54;40.58;;;24.17;;
40827;SDS011;26549;50.918;5.338;2023-02-10T09:46:59;45.10;;;25.88;;
40827;SDS011;26549;50.918;5.338;2023-02-10T09:56:03;46.13;;;24.95;;
40827;SDS011;26549;50.918;5.338;2023-02-10T09:58:51;45.00;;;25.02;;
40827;SDS011;26549;50.918;5.338;2023-02-10T10:01:34;54.03;;;27.35;;
40827;SDS011;26549;50.918;5.338;2023-02-10T10:06:46;44.70;;;23.88;;
40827;SDS011;26549;50.918;5.338;2023-02-10T10:11:55;41.80;;;25.13;;
40827;SDS011;26549;50.918;5.338;2023-02-10T10:14:28;46.47;;;25.98;;
40827;SDS011;26549;50.918;5.338;2023-02-10T10:25:14;41.08;;;22.48;;
40827;SDS011;26549;50.918;5.338;2023-02-10T10:33:21;43.20;;;24.08;;
40827;SDS011;26549;50.918;5.338;2023-02-10T10:36:20;43.33;;;23.65;;
40827;SDS011;26549;50.918;5.338;2023-02-10T10:38:49;45.65;;;22.70;;
40827;SDS011;26549;50.918;5.338;2023-02-10T10:41:23;40.30;;;22.88;;
40827;SDS011;26549;50.918;5.338;2023-02-10T10:43:53;45.45;;;24.90;;
40827;SDS011;26549;50.918;5.338;2023-02-10T10:46:27;40.75;;;23.88;;
40827;SDS011;26549;50.918;5.338;2023-02-10T10:48:53;42.92;;;22.75;;
40827;SDS011;26549;50.918;5.338;2023-02-10T10:51:20;41.78;;;22.85;;
40827;SDS011;26549;50.918;5.338;2023-02-10T10:53:53;42.83;;;23.52;;
40827;SDS011;26549;50.918;5.338;2023-02-10T10:56:26;38.45;;;23.33;;
40827;SDS011;26549;50.918;5.338;2023-02-10T10:59:00;41.85;;;22.02;;
40827;SDS011;26549;50.918;5.338;2023-02-10T11:01:36;41.95;;;22.95;;
40827;SDS011;26549;50.918;5.338;2023-02-10T11:04:09;42.60;;;21.40;;
40827;SDS011;26549;50.918;5.338;2023-02-10T11:06:37;38.25;;;21.38;;
40827;SDS011;26549;50.918;5.338;2023-02-10T11:09:28;41.00;;;22.50;;
40827;SDS011;26549;50.918;5.338;2023-02-10T11:12:00;34.35;;;20.90;;
40827;SDS011;26549;50.918;5.338;2023-02-10T11:14:36;35.72;;;21.77;;
40827;SDS011;26549;50.918;5.338;2023-02-10T11:17:52;35.42;;;20.77;;
40827;SDS011;26549;50.918;5.338;2023-02-10T11:22:38;39.60;;;22.63;;
40827;SDS011;26549;50.918;5.338;2023-02-10T11:25:54;39.25;;;21.25;;
40827;SDS011;26549;50.918;5.338;2023-02-10T11:27:57;39.10;;;21.58;;
40827;SDS011;26549;50.918;5.338;2023-02-10T11:30:27;35.00;;;20.20;;
40827;SDS011;26549;50.918;5.338;2023-02-10T11:32:55;35.25;;;21.70;;
40827;SDS011;26549;50.918;5.338;2023-02-10T11:35:21;35.55;;;21.48;;
40827;SDS011;26549;50.918;5.338;2023-02-10T11:37:56;38.55;;;22.20;;
40827;SDS011;26549;50.918;5.338;2023-02-10T11:40:26;37.05;;;20.20;;
40827;SDS011;26549;50.918;5.338;2023-02-10T11:42:55;38.50;;;20.15;;
40827;SDS011;26549;50.918;5.338;2023-02-10T11:45:26;36.45;;;21.08;;
40827;SDS011;26549;50.918;5.338;2023-02-10T11:48:03;33.75;;;20.55;;
40827;SDS011;26549;50.918;5.338;2023-02-10T11:50:37;36.10;;;19.08;;
40827;SDS011;26549;50.918;5.338;2023-02-10T11:53:03;34.17;;;18.77;;
40827;SDS011;26549;50.918;5.338;2023-02-10T11:55:52;33.85;;;19.50;;
40827;SDS011;26549;50.918;5.338;2023-02-10T12:04:33;34.72;;;19.05;;
40827;SDS011;26549;50.918;5.338;2023-02-10T12:07:28;30.92;;;18.80;;
40827;SDS011;26549;50.918;5.338;2023-02-10T12:29:23;28.92;;;17.58;;
40827;SDS011;26549;50.918;5.338;2023-02-10T12:32:26;26.58;;;15.43;;
40827;SDS011;26549;50.918;5.338;2023-02-10T12:45:47;25.30;;;16.08;;
40827;SDS011;26549;50.918;5.338;2023-02-10T12:53:55;22.00;;;12.13;;
40827;SDS011;26549;50.918;5.338;2023-02-10T12:56:29;19.77;;;11.68;;
40827;SDS011;26549;50.918;5.338;2023-02-10T12:59:15;23.58;;;14.60;;
40827;SDS011;26549;50.918;5.338;2023-02-10T13:01:49;24.00;;;12.98;;
40827;SDS011;26549;50.918;5.338;2023-02-10T13:12:58;28.73;;;14.52;;
40827;SDS011;26549;50.918;5.338;2023-02-10T13:15:38;30.88;;;15.23;;
40827;SDS011;26549;50.918;5.338;2023-02-10T13:18:15;29.00;;;15.88;;
40827;SDS011;26549;50.918;5.338;2023-02-10T13:23:47;28.38;;;15.25;;
40827;SDS011;26549;50.918;5.338;2023-02-10T13:32:01;33.17;;;15.75;;
40827;SDS011;26549;50.918;5.338;2023-02-10T13:34:45;27.60;;;15.98;;
40827;SDS011;26549;50.918;5.338;2023-02-10T13:39:49;31.00;;;16.42;;
40827;SDS011;26549;50.918;5.338;2023-02-10T13:44:58;34.13;;;15.70;;
40827;SDS011;26549;50.918;5.338;2023-02-10T13:47:29;29.15;;;16.27;;
40827;SDS011;26549;50.918;5.338;2023-02-10T13:55:27;31.00;;;15.70;;
40827;SDS011;26549;50.918;5.338;2023-02-10T13:58:47;30.30;;;17.50;;
40827;SDS011;26549;50.918;5.338;2023-02-10T14:00:54;31.98;;;17.08;;
40827;SDS011;26549;50.918;5.338;2023-02-10T14:03:25;33.85;;;16.73;;
40827;SDS011;26549;50.918;5.338;2023-02-10T14:05:57;38.15;;;17.90;;
40827;SDS011;26549;50.918;5.338;2023-02-10T14:08:36;36.88;;;18.85;;
40827;SDS011;26549;50.918;5.338;2023-02-10T14:13:39;39.17;;;17.52;;
40827;SDS011;26549;50.918;5.338;2023-02-10T14:18:56;32.70;;;16.73;;
40827;SDS011;26549;50.918;5.338;2023-02-10T14:21:23;31.00;;;16.23;;
40827;SDS011;26549;50.918;5.338;2023-02-10T14:23:51;34.65;;;18.38;;
40827;SDS011;26549;50.918;5.338;2023-02-10T14:26:21;33.78;;;17.48;;
40827;SDS011;26549;50.918;5.338;2023-02-10T14:28:59;34.33;;;15.60;;
40827;SDS011;26549;50.918;5.338;2023-02-10T14:31:28;30.60;;;16.17;;
40827;SDS011;26549;50.918;5.338;2023-02-10T14:34:02;30.25;;;15.70;;
40827;SDS011;26549;50.918;5.338;2023-02-10T14:36:30;28.88;;;17.05;;
40827;SDS011;26549;50.918;5.338;2023-02-10T14:38:57;26.45;;;14.57;;
40827;SDS011;26549;50.918;5.338;2023-02-10T14:41:27;32.67;;;15.85;;
40827;SDS011;26549;50.918;5.338;2023-02-10T14:43:55;31.02;;;16.42;;
40827;SDS011;26549;50.918;5.338;2023-02-10T14:46:22;35.55;;;17.05;;
40827;SDS011;26549;50.918;5.338;2023-02-10T14:48:51;34.53;;;17.65;;
40827;SDS011;26549;50.918;5.338;2023-02-10T14:51:23;29.45;;;16.58;;
40827;SDS011;26549;50.918;5.338;2023-02-10T14:53:52;32.72;;;16.38;;
40827;SDS011;26549;50.918;5.338;2023-02-10T14:56:25;31.25;;;16.45;;
40827;SDS011;26549;50.918;5.338;2023-02-10T14:58:55;32.40;;;16.73;;
40827;SDS011;26549;50.918;5.338;2023-02-10T15:01:33;37.13;;;17.25;;
40827;SDS011;26549;50.918;5.338;2023-02-10T15:04:01;34.58;;;16.27;;
40827;SDS011;26549;50.918;5.338;2023-02-10T15:06:31;31.13;;;16.95;;
40827;SDS011;26549;50.918;5.338;2023-02-10T15:09:11;36.22;;;19.02;;
40827;SDS011;26549;50.918;5.338;2023-02-10T15:11:43;32.38;;;17.70;;
40827;SDS011;26549;50.918;5.338;2023-02-10T15:14:34;35.88;;;18.33;;
40827;SDS011;26549;50.918;5.338;2023-02-10T15:17:23;42.20;;;18.17;;
40827;SDS011;26549;50.918;5.338;2023-02-10T15:20:19;36.72;;;18.58;;
40827;SDS011;26549;50.918;5.338;2023-02-10T15:27:55;39.33;;;18.25;;
40827;SDS011;26549;50.918;5.338;2023-02-10T15:30:24;35.83;;;19.15;;
40827;SDS011;26549;50.918;5.338;2023-02-10T15:32:52;35.67;;;19.05;;
40827;SDS011;26549;50.918;5.338;2023-02-10T15:35:24;40.47;;;20.23;;
40827;SDS011;26549;50.918;5.338;2023-02-10T15:37:51;39.65;;;19.40;;
40827;SDS011;26549;50.918;5.338;2023-02-10T15:40:25;36.70;;;19.75;;
40827;SDS011;26549;50.918;5.338;2023-02-10T15:43:03;37.38;;;20.35;;
40827;SDS011;26549;50.918;5.338;2023-02-10T15:45:31;39.40;;;20.85;;
40827;SDS011;26549;50.918;5.338;2023-02-10T15:48:07;47.63;;;20.35;;
40827;SDS011;26549;50.918;5.338;2023-02-10T15:50:34;37.25;;;19.25;;
40827;SDS011;26549;50.918;5.338;2023-02-10T15:53:01;37.70;;;19.10;;
40827;SDS011;26549;50.918;5.338;2023-02-10T15:55:36;41.40;;;17.98;;
40827;SDS011;26549;50.918;5.338;2023-02-10T16:00:35;39.47;;;18.10;;
40827;SDS011;26549;50.918;5.338;2023-02-10T16:03:02;36.13;;;18.70;;
40827;SDS011;26549;50.918;5.338;2023-02-10T16:05:31;31.23;;;18.05;;
40827;SDS011;26549;50.918;5.338;2023-02-10T16:08:04;28.40;;;17.10;;
40827;SDS011;26549;50.918;5.338;2023-02-10T16:10:36;31.60;;;17.15;;
40827;SDS011;26549;50.918;5.338;2023-02-10T16:13:02;28.02;;;14.82;;
40827;SDS011;26549;50.918;5.338;2023-02-10T16:15:28;35.55;;;17.58;;
40827;SDS011;26549;50.918;5.338;2023-02-10T16:17:56;35.95;;;18.15;;
40827;SDS011;26549;50.918;5.338;2023-02-10T16:20:25;41.15;;;18.45;;
40827;SDS011;26549;50.918;5.338;2023-02-10T16:22:53;31.58;;;17.55;;
40827;SDS011;26549;50.918;5.338;2023-02-10T16:25:21;33.53;;;15.63;;
40827;SDS011;26549;50.918;5.338;2023-02-10T16:27:49;35.25;;;17.92;;
40827;SDS011;26549;50.918;5.338;2023-02-10T16:30:16;37.67;;;19.23;;
40827;SDS011;26549;50.918;5.338;2023-02-10T16:32:47;35.20;;;17.27;;
40827;SDS011;26549;50.918;5.338;2023-02-10T16:35:13;35.53;;;17.33;;
40827;SDS011;26549;50.918;5.338;2023-02-10T16:37:39;31.80;;;17.42;;
40827;SDS011;26549;50.918;5.338;2023-02-10T16:40:06;43.95;;;20.20;;
40827;SDS011;26549;50.918;5.338;2023-02-10T16:42:33;33.75;;;17.98;;
40827;SDS011;26549;50.918;5.338;2023-02-10T16:44:59;33.63;;;18.52;;
40827;SDS011;26549;50.918;5.338;2023-02-10T16:47:24;41.60;;;19.58;;
40827;SDS011;26549;50.918;5.338;2023-02-10T16:49:50;40.97;;;19.35;;
40827;SDS011;26549;50.918;5.338;2023-02-10T16:52:16;35.33;;;18.70;;
40827;SDS011;26549;50.918;5.338;2023-02-10T16:54:47;43.97;;;19.50;;